createdAt,value
2023-02-12T00:00:49.068Z,68.85
2023-02-12T00:03:53.358Z,56.80
2023-02-12T00:06:57.448Z,60.20
2023-02-12T00:10:01.570Z,60.80
2023-02-12T00:13:05.816Z,61.33
2023-02-12T00:16:13.610Z,62.72
2023-02-12T00:19:17.975Z,65.00
2023-02-12T00:22:22.073Z,61.28
2023-02-12T00:25:26.295Z,61.25
2023-02-12T00:28:30.469Z,59.35
2023-02-12T00:31:34.804Z,56.38
2023-02-12T00:34:39.077Z,58.70
2023-02-12T00:37:43.070Z,55.53
2023-02-12T00:40:46.941Z,56.83
2023-02-12T00:43:51.616Z,57.40
2023-02-12T00:46:55.420Z,56.92
2023-02-12T00:49:59.747Z,58.55
2023-02-12T00:53:03.810Z,57.38
2023-02-12T00:56:08.288Z,52.45
2023-02-12T00:59:12.371Z,58.28
2023-02-12T01:02:18.053Z,55.58
2023-02-12T01:05:22.213Z,52.38
2023-02-12T01:08:26.250Z,53.47
2023-02-12T01:11:30.303Z,52.33
2023-02-12T01:14:34.622Z,54.97
2023-02-12T01:17:39.284Z,55.72
2023-02-12T01:20:43.231Z,51.30
2023-02-12T01:23:48.187Z,50.40
2023-02-12T01:26:51.937Z,54.35
2023-02-12T01:29:56.586Z,49.85
2023-02-12T01:33:00.825Z,47.28
2023-02-12T01:36:05.210Z,50.17
2023-02-12T01:39:10.887Z,49.97
2023-02-12T01:42:18.670Z,48.20
2023-02-12T01:45:22.474Z,51.13
2023-02-12T01:48:29.055Z,47.10
2023-02-12T01:51:34.741Z,46.05
2023-02-12T01:54:40.178Z,48.72
2023-02-12T01:57:47.559Z,48.40
2023-02-12T02:00:52.682Z,47.78
2023-02-12T02:04:01.310Z,48.15
2023-02-12T02:07:08.147Z,47.92
2023-02-12T02:10:12.320Z,49.85
2023-02-12T02:13:35.018Z,50.38
2023-02-12T02:16:43.628Z,48.83
2023-02-12T02:20:16.577Z,45.58
2023-02-12T02:23:29.906Z,47.95
2023-02-12T02:27:03.151Z,45.75
2023-02-12T02:30:40.492Z,45.75
2023-02-12T02:33:58.293Z,42.28
2023-02-12T02:37:19.599Z,42.92
2023-02-12T02:40:27.344Z,43.42
2023-02-12T02:43:38.381Z,43.38
2023-02-12T02:46:48.658Z,42.28
2023-02-12T02:50:04.679Z,44.97
2023-02-12T02:53:13.453Z,47.70
2023-02-12T02:56:20.150Z,45.05
2023-02-12T02:59:32.913Z,49.67
2023-02-12T03:02:40.403Z,43.08
2023-02-12T03:05:49.216Z,40.88
2023-02-12T03:08:58.481Z,44.83
2023-02-12T03:12:29.549Z,47.75
2023-02-12T03:15:46.228Z,45.15
2023-02-12T03:18:56.046Z,44.33
2023-02-12T03:22:23.344Z,45.65
2023-02-12T03:25:57.029Z,45.25
2023-02-12T03:32:36.452Z,46.10
2023-02-12T03:36:05.388Z,50.30
2023-02-12T03:39:27.392Z,45.50
2023-02-12T03:42:50.115Z,45.63
2023-02-12T03:46:13.343Z,45.17
2023-02-12T03:49:23.801Z,46.22
2023-02-12T03:52:29.345Z,47.55
2023-02-12T03:55:39.952Z,44.75
2023-02-12T03:58:45.398Z,49.08
2023-02-12T04:01:52.902Z,46.95
2023-02-12T04:04:56.997Z,48.70
2023-02-12T04:08:04.318Z,48.00
2023-02-12T04:11:24.730Z,45.03
2023-02-12T04:14:53.564Z,43.30
2023-02-12T04:18:17.232Z,44.47
2023-02-12T04:21:46.414Z,44.33
2023-02-12T04:25:18.961Z,41.80
2023-02-12T04:28:41.878Z,43.75
2023-02-12T04:31:54.827Z,43.28
2023-02-12T04:35:05.067Z,41.65
2023-02-12T04:38:30.809Z,43.17
2023-02-12T04:41:35.115Z,39.30
2023-02-12T04:44:42.586Z,40.67
2023-02-12T04:47:47.439Z,43.05
2023-02-12T04:50:51.264Z,43.58
2023-02-12T04:53:55.220Z,39.75
2023-02-12T04:56:59.593Z,42.70
2023-02-12T05:00:08.868Z,39.45
2023-02-12T05:03:12.942Z,39.17
2023-02-12T05:06:17.191Z,39.65
2023-02-12T05:09:22.552Z,41.70
2023-02-12T05:12:26.797Z,40.20
2023-02-12T05:15:30.831Z,39.13
2023-02-12T05:18:35.733Z,42.78
2023-02-12T05:21:39.912Z,40.92
2023-02-12T05:24:44.227Z,38.83
2023-02-12T05:27:48.479Z,41.70
2023-02-12T05:30:52.711Z,38.92
2023-02-12T05:33:57.065Z,40.00
2023-02-12T05:37:01.672Z,37.30
2023-02-12T05:40:06.479Z,39.55
2023-02-12T05:43:11.112Z,38.70
2023-02-12T05:46:15.620Z,35.33
2023-02-12T05:49:19.532Z,37.40
2023-02-12T05:52:23.737Z,38.85
2023-02-12T05:55:27.908Z,38.97
2023-02-12T05:58:32.011Z,36.17
2023-02-12T06:01:38.578Z,37.55
2023-02-12T06:04:43.005Z,37.15
2023-02-12T06:07:47.474Z,37.00
2023-02-12T06:10:51.946Z,35.08
2023-02-12T06:13:56.096Z,36.40
2023-02-12T06:17:00.302Z,37.05
2023-02-12T06:20:04.706Z,39.03
2023-02-12T06:23:08.687Z,34.55
2023-02-12T06:26:12.945Z,34.42
2023-02-12T06:29:18.108Z,37.28
2023-02-12T06:32:22.640Z,37.90
2023-02-12T06:35:27.204Z,34.88
2023-02-12T06:38:31.373Z,42.00
2023-02-12T06:41:35.629Z,36.05
2023-02-12T06:44:39.595Z,43.03
2023-02-12T06:47:43.339Z,37.70
2023-02-12T06:50:47.648Z,38.83
2023-02-12T06:53:53.586Z,44.25
2023-02-12T06:56:57.494Z,41.97
2023-02-12T07:00:01.769Z,45.55
2023-02-12T07:03:05.813Z,43.72
2023-02-12T07:06:10.812Z,43.60
2023-02-12T07:09:14.918Z,42.30
2023-02-12T07:12:19.107Z,43.95
2023-02-12T07:15:23.319Z,41.72
2023-02-12T07:18:27.371Z,39.95
2023-02-12T07:21:32.238Z,41.13
2023-02-12T07:24:36.412Z,41.05
2023-02-12T07:27:40.833Z,41.42
2023-02-12T07:30:45.076Z,37.40
2023-02-12T07:33:54.717Z,37.13
2023-02-12T07:36:58.749Z,36.83
2023-02-12T07:40:03.023Z,34.13
2023-02-12T07:43:07.895Z,32.72
2023-02-12T07:46:34.724Z,36.63
2023-02-12T07:49:38.836Z,32.35
2023-02-12T07:52:43.223Z,32.35
2023-02-12T07:55:47.540Z,31.67
2023-02-12T07:58:53.018Z,29.55
2023-02-12T08:01:57.183Z,30.20
2023-02-12T08:05:01.252Z,28.85
2023-02-12T08:08:05.518Z,27.05
2023-02-12T08:11:11.542Z,27.05
2023-02-12T08:14:18.532Z,29.27
2023-02-12T08:17:22.676Z,27.52
2023-02-12T08:20:26.696Z,27.48
2023-02-12T08:23:32.042Z,28.88
2023-02-12T08:26:38.553Z,29.15
2023-02-12T08:29:42.758Z,27.88
2023-02-12T08:32:49.558Z,29.30
2023-02-12T08:36:05.317Z,30.48
2023-02-12T08:39:10.682Z,30.13
2023-02-12T08:42:14.905Z,29.98
2023-02-12T08:45:19.304Z,31.27
2023-02-12T08:48:23.839Z,31.20
2023-02-12T08:51:31.753Z,31.23
2023-02-12T08:54:35.989Z,31.30
2023-02-12T08:57:42.605Z,30.98
2023-02-12T09:00:46.519Z,34.45
2023-02-12T09:03:51.743Z,32.05
2023-02-12T09:06:56.472Z,32.50
2023-02-12T09:10:00.658Z,31.08
2023-02-12T09:13:04.434Z,29.10
2023-02-12T09:16:09.091Z,29.35
2023-02-12T09:19:14.619Z,30.85
2023-02-12T09:22:18.655Z,29.00
2023-02-12T09:25:23.033Z,29.15
2023-02-12T09:28:27.263Z,30.95
2023-02-12T09:31:32.671Z,29.95
2023-02-12T09:34:37.107Z,31.25
2023-02-12T09:37:41.726Z,27.85
2023-02-12T09:40:51.659Z,27.83
2023-02-12T09:44:21.607Z,25.23
2023-02-12T09:47:44.386Z,26.23
2023-02-12T09:50:57.885Z,26.92
2023-02-12T09:54:21.028Z,24.50
2023-02-12T09:57:36.118Z,25.63
2023-02-12T10:00:40.202Z,25.15
2023-02-12T10:03:47.370Z,24.95
2023-02-12T10:07:16.647Z,24.17
2023-02-12T10:10:39.221Z,23.75
2023-02-12T10:14:21.055Z,24.88
2023-02-12T10:17:33.324Z,26.60
2023-02-12T10:21:05.234Z,25.10
2023-02-12T10:24:44.243Z,23.80
2023-02-12T10:27:55.134Z,24.65
2023-02-12T10:31:03.457Z,25.75
2023-02-12T10:34:22.702Z,23.50
2023-02-12T10:37:37.480Z,23.33
2023-02-12T10:40:44.234Z,24.20
2023-02-12T10:43:48.447Z,24.90
2023-02-12T10:46:53.206Z,23.42
2023-02-12T10:50:02.879Z,23.08
2023-02-12T10:53:17.519Z,24.33
2023-02-12T10:56:24.636Z,27.10
2023-02-12T10:59:29.132Z,24.65
2023-02-12T11:02:34.330Z,23.33
2023-02-12T11:05:41.228Z,23.00
2023-02-12T11:08:46.109Z,24.38
2023-02-12T11:11:50.379Z,21.75
2023-02-12T11:14:57.903Z,23.55
2023-02-12T11:18:07.500Z,22.80
2023-02-12T11:21:12.923Z,24.52
2023-02-12T11:24:25.927Z,20.92
2023-02-12T11:27:31.158Z,24.38
2023-02-12T11:30:34.800Z,22.98
2023-02-12T11:33:39.313Z,20.67
2023-02-12T11:36:46.831Z,22.63
2023-02-12T11:39:51.439Z,21.58
2023-02-12T11:43:02.226Z,24.05
2023-02-12T11:46:08.695Z,21.35
2023-02-12T11:49:21.316Z,21.95
2023-02-12T11:52:32.605Z,21.98
2023-02-12T11:55:40.011Z,25.48
2023-02-12T11:58:44.927Z,22.52
2023-02-12T12:01:52.902Z,19.52
2023-02-12T12:05:11.998Z,21.23
2023-02-12T12:08:26.317Z,21.02
2023-02-12T12:11:40.320Z,19.70
2023-02-12T12:15:09.600Z,18.85
2023-02-12T12:18:51.295Z,22.88
2023-02-12T12:22:04.676Z,23.38
2023-02-12T12:25:25.186Z,24.58
2023-02-12T12:28:40.058Z,23.73
2023-02-12T12:31:47.080Z,24.58
2023-02-12T12:34:52.282Z,24.88
2023-02-12T12:38:07.593Z,28.10
2023-02-12T12:42:02.767Z,26.15
2023-02-12T12:45:20.850Z,27.15
2023-02-12T12:48:33.933Z,26.42
2023-02-12T12:51:47.071Z,26.65
2023-02-12T12:55:28.189Z,29.08
2023-02-12T12:59:03.469Z,29.48
2023-02-12T13:02:44.893Z,31.40
2023-02-12T13:06:16.002Z,39.20
2023-02-12T13:09:28.551Z,36.75
2023-02-12T13:12:54.279Z,37.72
2023-02-12T13:16:20.570Z,36.13
2023-02-12T13:19:36.863Z,36.42
2023-02-12T13:22:54.484Z,34.05
2023-02-12T13:26:11.296Z,34.25
2023-02-12T13:29:29.668Z,33.15
2023-02-12T13:32:40.643Z,40.42
2023-02-12T13:35:49.380Z,42.38
2023-02-12T13:38:59.932Z,42.40
2023-02-12T13:42:55.350Z,43.92
2023-02-12T13:46:02.054Z,37.65
2023-02-12T13:49:38.198Z,39.28
2023-02-12T13:53:06.888Z,40.90
2023-02-12T13:56:36.513Z,35.45
2023-02-12T13:59:43.363Z,40.80
2023-02-12T14:02:49.360Z,41.17
2023-02-12T14:06:13.154Z,41.03
2023-02-12T14:09:26.691Z,44.67
2023-02-12T14:12:42.994Z,40.25
2023-02-12T14:15:56.559Z,38.92
2023-02-12T14:19:38.436Z,40.10
2023-02-12T14:22:42.156Z,45.00
2023-02-12T14:25:55.390Z,44.33
2023-02-12T14:29:03.169Z,44.00
2023-02-12T14:32:45.786Z,41.95
2023-02-12T14:36:15.402Z,39.65
2023-02-12T14:39:19.490Z,41.05
2023-02-12T14:42:23.483Z,38.45
2023-02-12T14:45:35.954Z,41.30
2023-02-12T14:48:48.882Z,38.90
2023-02-12T14:52:06.578Z,40.97
2023-02-12T14:55:25.601Z,43.88
2023-02-12T14:58:32.522Z,39.50
2023-02-12T15:01:37.683Z,41.53
2023-02-12T15:04:45.285Z,39.17
2023-02-12T15:07:55.581Z,41.55
2023-02-12T15:11:04.415Z,37.78
2023-02-12T15:14:14.874Z,43.88
2023-02-12T15:17:27.710Z,41.08
2023-02-12T15:20:38.515Z,46.28
2023-02-12T15:23:44.384Z,43.00
2023-02-12T15:26:51.670Z,40.97
2023-02-12T15:29:55.615Z,41.55
2023-02-12T15:33:04.036Z,50.25
2023-02-12T15:36:10.659Z,46.78
2023-02-12T15:39:18.931Z,41.78
2023-02-12T15:42:42.516Z,42.65
2023-02-12T15:45:51.892Z,47.03
2023-02-12T15:48:56.133Z,45.00
2023-02-12T15:52:04.059Z,48.65
2023-02-12T15:55:16.356Z,44.92
2023-02-12T15:58:36.273Z,45.05
2023-02-12T16:01:40.741Z,46.58
2023-02-12T16:04:44.987Z,46.63
2023-02-12T16:07:49.579Z,46.10
2023-02-12T16:10:55.636Z,47.15
2023-02-12T16:14:08.467Z,51.55
2023-02-12T16:17:25.007Z,47.95
2023-02-12T16:20:29.446Z,49.47
2023-02-12T16:23:35.306Z,41.83
2023-02-12T16:26:39.504Z,48.13
2023-02-12T16:29:52.142Z,46.95
2023-02-12T16:32:56.545Z,44.25
2023-02-12T16:36:22.554Z,49.08
2023-02-12T16:39:54.057Z,50.85
2023-02-12T16:43:23.368Z,47.03
2023-02-12T16:46:46.416Z,47.80
2023-02-12T16:49:59.021Z,50.85
2023-02-12T16:53:22.404Z,48.27
2023-02-12T16:56:40.163Z,51.70
2023-02-12T16:59:45.190Z,52.60
2023-02-12T17:02:49.616Z,51.63
2023-02-12T17:05:53.658Z,54.65
2023-02-12T17:08:59.310Z,58.63
2023-02-12T17:12:03.514Z,59.30
2023-02-12T17:15:07.923Z,59.55
2023-02-12T17:18:12.340Z,58.25
2023-02-12T17:21:32.532Z,56.95
2023-02-12T17:24:36.725Z,56.72
2023-02-12T17:27:41.202Z,61.65
2023-02-12T17:30:45.545Z,57.50
2023-02-12T17:33:50.210Z,54.58
2023-02-12T17:36:54.282Z,51.80
2023-02-12T17:39:59.011Z,52.55
2023-02-12T17:43:04.754Z,51.22
2023-02-12T17:46:14.298Z,52.42
2023-02-12T17:49:18.821Z,47.05
2023-02-12T17:52:23.218Z,45.40
2023-02-12T17:55:27.335Z,42.83
2023-02-12T17:58:31.547Z,48.53
2023-02-12T18:01:36.086Z,44.38
2023-02-12T18:04:40.253Z,48.00
2023-02-12T18:07:44.563Z,50.85
2023-02-12T18:10:48.717Z,45.22
2023-02-12T18:13:56.679Z,46.08
2023-02-12T18:17:01.000Z,41.80
2023-02-12T18:20:06.037Z,43.22
2023-02-12T18:23:11.383Z,42.85
2023-02-12T18:26:17.307Z,46.88
2023-02-12T18:29:21.653Z,44.70
2023-02-12T18:32:25.711Z,40.78
2023-02-12T18:35:29.563Z,43.83
2023-02-12T18:38:35.643Z,42.10
2023-02-12T18:41:40.188Z,40.85
2023-02-12T18:44:44.192Z,43.67
2023-02-12T18:47:48.148Z,39.90
2023-02-12T18:50:55.162Z,42.05
2023-02-12T18:54:06.339Z,41.05
2023-02-12T18:57:10.996Z,44.15
2023-02-12T19:00:15.695Z,41.72
2023-02-12T19:03:19.523Z,41.70
2023-02-12T19:06:23.880Z,41.45
2023-02-12T19:09:28.491Z,42.80
2023-02-12T19:12:32.639Z,43.58
2023-02-12T19:15:40.666Z,42.78
2023-02-12T19:18:47.737Z,43.00
2023-02-12T19:21:51.736Z,39.58
2023-02-12T19:24:56.028Z,39.25
2023-02-12T19:28:00.405Z,37.03
2023-02-12T19:31:19.907Z,43.20
2023-02-12T19:34:24.779Z,41.17
2023-02-12T19:37:28.712Z,38.58
2023-02-12T19:40:32.977Z,38.60
2023-02-12T19:43:37.763Z,41.20
2023-02-12T19:46:42.860Z,39.42
2023-02-12T19:49:46.651Z,44.92
2023-02-12T19:52:50.949Z,41.92
2023-02-12T19:55:55.436Z,41.55
2023-02-12T19:58:59.412Z,42.28
2023-02-12T20:02:03.694Z,45.10
2023-02-12T20:05:08.174Z,40.60
2023-02-12T20:08:13.625Z,42.72
2023-02-12T20:11:20.416Z,40.42
2023-02-12T20:14:24.620Z,39.80
2023-02-12T20:17:28.859Z,40.35
2023-02-12T20:20:34.067Z,40.33
2023-02-12T20:23:38.036Z,38.80
2023-02-12T20:26:42.403Z,34.03
2023-02-12T20:29:46.892Z,34.05
2023-02-12T20:32:51.418Z,28.67
2023-02-12T20:35:56.874Z,30.52
2023-02-12T20:39:01.438Z,32.60
2023-02-12T20:42:05.638Z,28.75
2023-02-12T20:45:10.011Z,29.55
2023-02-12T20:48:14.369Z,29.42
2023-02-12T20:51:21.699Z,28.80
2023-02-12T20:54:26.052Z,30.85
2023-02-12T20:57:31.459Z,27.67
2023-02-12T21:00:35.279Z,27.42
2023-02-12T21:03:40.148Z,26.90
2023-02-12T21:06:45.562Z,27.27
2023-02-12T21:09:50.161Z,26.90
2023-02-12T21:12:54.346Z,26.67
2023-02-12T21:16:20.258Z,24.98
2023-02-12T21:19:25.767Z,26.02
2023-02-12T21:22:29.539Z,26.60
2023-02-12T21:25:33.436Z,23.70
2023-02-12T21:28:37.832Z,23.55
2023-02-12T21:31:45.636Z,23.27
2023-02-12T21:34:49.995Z,22.98
2023-02-12T21:37:53.811Z,21.77
2023-02-12T21:41:06.442Z,21.88
2023-02-12T21:44:15.752Z,24.55
2023-02-12T21:47:19.924Z,22.50
2023-02-12T21:50:24.080Z,22.77
2023-02-12T21:53:29.028Z,21.40
2023-02-12T21:56:33.345Z,24.88
2023-02-12T21:59:37.403Z,22.10
2023-02-12T22:02:41.591Z,23.35
2023-02-12T22:05:46.515Z,19.30
2023-02-12T22:08:54.174Z,24.15
2023-02-12T22:11:58.269Z,21.45
2023-02-12T22:15:02.520Z,22.85
2023-02-12T22:18:06.712Z,23.98
2023-02-12T22:21:13.578Z,19.83
2023-02-12T22:24:18.337Z,22.80
2023-02-12T22:27:22.556Z,20.10
2023-02-12T22:30:26.728Z,20.42
2023-02-12T22:33:30.980Z,22.70
2023-02-12T22:36:37.421Z,19.92
2023-02-12T22:39:41.436Z,21.33
2023-02-12T22:42:45.557Z,24.63
2023-02-12T22:45:49.589Z,21.73
2023-02-12T22:48:53.954Z,23.25
2023-02-12T22:51:58.206Z,24.08
2023-02-12T22:55:02.666Z,22.73
2023-02-12T22:58:07.247Z,23.58
2023-02-12T23:01:14.303Z,22.30
2023-02-12T23:04:18.728Z,21.88
2023-02-12T23:07:22.880Z,24.42
2023-02-12T23:10:27.196Z,24.42
2023-02-12T23:13:32.010Z,22.40
2023-02-12T23:16:35.903Z,23.77
2023-02-12T23:19:39.949Z,26.63
2023-02-12T23:22:43.786Z,22.73
2023-02-12T23:25:48.220Z,24.17
2023-02-12T23:28:52.440Z,23.17
2023-02-12T23:31:56.543Z,25.02
2023-02-12T23:35:00.440Z,21.55
2023-02-12T23:38:04.895Z,22.70
2023-02-12T23:41:08.818Z,22.13
2023-02-12T23:44:13.653Z,23.98
2023-02-12T23:47:17.903Z,25.23
2023-02-12T23:50:22.362Z,25.08
2023-02-12T23:53:26.430Z,22.67
2023-02-12T23:56:30.712Z,25.25
2023-02-12T23:59:34.881Z,25.40
